Observation data for Knox City on 12/09/2018      Previous  Date       Current Mesonet Observations  Soil Data  Daily Summary Page  Observations in Plain Language
KKN1 090600Z 25005KT M04/M05 A3034 RMK A01 T10441051  RH  095%=      5-min Rain = 0
KKN1 090605Z 25005KT M04/M05 A3033 RMK A01 T10431051  RH  095%=      5-min Rain = 0
KKN1 090610Z 25005KT M04/M05 A3033 RMK A01 T10441052  RH  095%=      5-min Rain = 0
KKN1 090615Z 25005KT M05/M05 A3033 RMK A01 T10451053  RH  094%=      5-min Rain = 0
KKN1 090620Z 25004KT M05/M05 A3033 RMK A01 T10451053  RH  094%=      5-min Rain = 0
KKN1 090625Z 24005KT M05/M05 A3033 RMK A01 T10451054  RH  094%=      5-min Rain = 0
KKN1 090630Z 25005KT M05/M05 A3033 RMK A01 T10461054  RH  094%=      5-min Rain = 0
KKN1 090635Z 25004KT M05/M06 A3033 RMK A01 T10461055  RH  094%=      5-min Rain = 0
KKN1 090640Z 25004KT M05/M05 A3033 RMK A01 T10461054  RH  094%=      5-min Rain = 0
KKN1 090645Z 25004KT M05/M05 A3033 RMK A01 T10451054  RH  094%=      5-min Rain = 0
KKN1 090650Z 25005KT M05/M05 A3034 RMK A01 T10451054  RH  094%=      5-min Rain = 0
KKN1 090655Z 25005KT M05/M06 A3034 RMK A01 T10451055  RH  093%=      5-min Rain = 0
KKN1 090700Z 27004KT M05/M05 A3033 RMK A01 T10451054  RH  094%=      5-min Rain = 0
KKN1 090705Z 27003KT M04/M05 A3033 RMK A01 T10441054  RH  093%=      5-min Rain = 0
KKN1 090710Z 27002KT M05/M06 A3033 RMK A01 T10451055  RH  093%=      5-min Rain = 0
KKN1 090715Z 28002KT M04/M05 A3033 RMK A01 T10441053  RH  093%=      5-min Rain = 0
KKN1 090720Z 30002KT M04/M05 A3033 RMK A01 T10421052  RH  094%=      5-min Rain = 0
KKN1 090725Z 30002KT M04/M05 A3033 RMK A01 T10411050  RH  093%=      5-min Rain = 0
KKN1 090730Z 29003KT M04/M05 A3033 RMK A01 T10401050  RH  093%=      5-min Rain = 0
KKN1 090735Z 29003KT M04/M05 A3033 RMK A01 T10431054  RH  093%=      5-min Rain = 0
KKN1 090740Z 30004KT M04/M05 A3033 RMK A01 T10401050  RH  093%=      5-min Rain = 0
KKN1 090745Z 30005KT M04/M05 A3033 RMK A01 T10361046  RH  093%=      5-min Rain = 0
KKN1 090750Z 30006KT M03/M05 A3033 RMK A01 T10321045  RH  091%=      5-min Rain = 0
KKN1 090755Z 30005KT M03/M05 A3033 RMK A01 T10331047  RH  090%=      5-min Rain = 0
KKN1 090800Z 31006KT M04/M05 A3033 RMK A01 T10351049  RH  090%=      5-min Rain = 0
KKN1 090805Z 31005KT M03/M05 A3033 RMK A01 T10341047  RH  091%=      5-min Rain = 0
KKN1 090810Z 31005KT M03/M05 A3033 RMK A01 T10341049  RH  090%=      5-min Rain = 0
KKN1 090815Z 29004KT M04/M06 A3034 RMK A01 T10411056  RH  089%=      5-min Rain = 0
KKN1 090820Z 28003KT M05/M06 A3034 RMK A01 T10491062  RH  090%=      5-min Rain = 0
KKN1 090825Z 31005KT M05/M06 A3034 RMK A01 T10481058  RH  092%=      5-min Rain = 0
KKN1 090830Z 31005KT M04/M05 A3034 RMK A01 T10411052  RH  093%=      5-min Rain = 0
KKN1 090835Z 31005KT M04/M05 A3034 RMK A01 T10361048  RH  092%=      5-min Rain = 0
KKN1 090840Z 32005KT M03/M05 A3034 RMK A01 T10311046  RH  090%=      5-min Rain = 0
KKN1 090845Z 32006KT M03/M05 A3034 RMK A01 T10301047  RH  089%=      5-min Rain = 0
KKN1 090850Z 31005KT M03/M05 A3034 RMK A01 T10291047  RH  088%=      5-min Rain = 0
KKN1 090855Z 31005KT M03/M05 A3034 RMK A01 T10301048  RH  088%=      5-min Rain = 0
KKN1 090900Z 30005KT M03/M05 A3034 RMK A01 T10311049  RH  088%=      5-min Rain = 0
KKN1 090905Z 30003KT M03/M05 A3034 RMK A01 T10331050  RH  089%=      5-min Rain = 0
KKN1 090910Z 29002KT M04/M05 A3034 RMK A01 T10351050  RH  089%=      5-min Rain = 0
KKN1 090915Z 29002KT M04/M05 A3033 RMK A01 T10361051  RH  090%=      5-min Rain = 0
KKN1 090920Z 30003KT M04/M05 A3033 RMK A01 T10361051  RH  090%=      5-min Rain = 0
KKN1 090925Z 32006KT M04/M05 A3033 RMK A01 T10371052  RH  090%=      5-min Rain = 0
KKN1 090930Z 32006KT M03/M05 A3033 RMK A01 T10331048  RH  090%=      5-min Rain = 0
KKN1 090935Z 31008KT M03/M05 A3033 RMK A01 T10341049  RH  089%=      5-min Rain = 0
KKN1 090940Z 32007KT M04/M05 A3033 RMK A01 T10361051  RH  090%=      5-min Rain = 0
KKN1 090945Z 32006KT M04/M05 A3033 RMK A01 T10371051  RH  090%=      5-min Rain = 0
KKN1 090950Z 32006KT M04/M05 A3033 RMK A01 T10381052  RH  090%=      5-min Rain = 0
KKN1 090955Z 33006KT M04/M05 A3033 RMK A01 T10391052  RH  091%=      5-min Rain = 0
KKN1 091000Z 33005KT M04/M05 A3033 RMK A01 T10401054  RH  090%=      5-min Rain = 0
KKN1 091005Z 33005KT M04/M05 A3033 RMK A01 T10401054  RH  090%=      5-min Rain = 0
KKN1 091010Z 33006KT M04/M05 A3033 RMK A01 T10401054  RH  090%=      5-min Rain = 0
KKN1 091015Z 34006KT M04/M06 A3033 RMK A01 T10401055  RH  090%=      5-min Rain = 0
KKN1 091020Z 33006KT M04/M06 A3033 RMK A01 T10411056  RH  089%=      5-min Rain = 0
KKN1 091025Z 33005KT M04/M06 A3033 RMK A01 T10421057  RH  090%=      5-min Rain = 0
KKN1 091030Z 33003KT M04/M06 A3033 RMK A01 T10431058  RH  089%=      5-min Rain = 0
KKN1 091035Z 32002KT M04/M06 A3033 RMK A01 T10441059  RH  090%=      5-min Rain = 0
KKN1 091040Z 31002KT M05/M06 A3033 RMK A01 T10461060  RH  090%=      5-min Rain = 0
KKN1 091045Z 29002KT M05/M06 A3033 RMK A01 T10461060  RH  090%=      5-min Rain = 0
KKN1 091050Z 30004KT M05/M06 A3034 RMK A01 T10481062  RH  090%=      5-min Rain = 0
KKN1 091055Z 31004KT M05/M06 A3034 RMK A01 T10481062  RH  090%=      5-min Rain = 0
KKN1 091100Z 31004KT M05/M06 A3034 RMK A01 T10481063  RH  090%=      5-min Rain = 0
KKN1 091105Z 31005KT M05/M06 A3034 RMK A01 T10461061  RH  089%=      5-min Rain = 0
KKN1 091110Z 30005KT M05/M06 A3034 RMK A01 T10461063  RH  088%=      5-min Rain = 0
KKN1 091115Z 29005KT M04/M06 A3034 RMK A01 T10431060  RH  088%=      5-min Rain = 0
KKN1 091120Z 29005KT M04/M06 A3034 RMK A01 T10401060  RH  086%=      5-min Rain = 0
KKN1 091125Z 29005KT M04/M06 A3034 RMK A01 T10391061  RH  085%=      5-min Rain = 0
KKN1 091130Z 29006KT M04/M06 A3035 RMK A01 T10371061  RH  084%=      5-min Rain = 0
KKN1 091135Z 29005KT M04/M06 A3035 RMK A01 T10361061  RH  083%=      5-min Rain = 0
KKN1 091140Z 29004KT M04/M06 A3035 RMK A01 T10371063  RH  083%=      5-min Rain = 0
KKN1 091145Z 29004KT M04/M06 A3035 RMK A01 T10401063  RH  084%=      5-min Rain = 0
KKN1 091150Z 30005KT M04/M07 A3036 RMK A01 T10421065  RH  084%=      5-min Rain = 0
KKN1 091155Z 31005KT M04/M07 A3036 RMK A01 T10441066  RH  085%=      5-min Rain = 0
KKN1 091200Z 30005KT M04/M07 A3036 RMK A01 T10441065  RH  085%=      5-min Rain = 0
KKN1 091205Z 29004KT M04/M07 A3036 RMK A01 T10441065  RH  086%=      5-min Rain = 0
KKN1 091210Z 30005KT M04/M07 A3036 RMK A01 T10441066  RH  085%=      5-min Rain = 0
KKN1 091215Z 29004KT M04/M07 A3037 RMK A01 T10441066  RH  085%=      5-min Rain = 0
KKN1 091220Z 29003KT M04/M07 A3037 RMK A01 T10421065  RH  084%=      5-min Rain = 0
KKN1 091225Z 28003KT M04/M07 A3037 RMK A01 T10441067  RH  084%=      5-min Rain = 0
KKN1 091230Z 29003KT M04/M07 A3037 RMK A01 T10411065  RH  083%=      5-min Rain = 0
KKN1 091235Z 27003KT M04/M07 A3037 RMK A01 T10421068  RH  082%=      5-min Rain = 0
KKN1 091240Z 28003KT M04/M07 A3037 RMK A01 T10441069  RH  082%=      5-min Rain = 0
KKN1 091245Z 29003KT M04/M07 A3037 RMK A01 T10441069  RH  083%=      5-min Rain = 0
KKN1 091250Z 29003KT M05/M07 A3037 RMK A01 T10451070  RH  083%=      5-min Rain = 0
KKN1 091255Z 29004KT M04/M07 A3037 RMK A01 T10431068  RH  083%=      5-min Rain = 0
KKN1 091300Z 29004KT M04/M07 A3038 RMK A01 T10421069  RH  082%=      5-min Rain = 0
KKN1 091305Z 29003KT M04/M07 A3038 RMK A01 T10431069  RH  082%=      5-min Rain = 0
KKN1 091310Z 30003KT M04/M07 A3038 RMK A01 T10441069  RH  082%=      5-min Rain = 0
KKN1 091315Z 30003KT M05/M07 A3038 RMK A01 T10451070  RH  083%=      5-min Rain = 0
KKN1 091320Z 28003KT M05/M07 A3038 RMK A01 T10451070  RH  083%=      5-min Rain = 0
KKN1 091325Z 29003KT M05/M07 A3038 RMK A01 T10461070  RH  083%=      5-min Rain = 0
KKN1 091330Z 29003KT M05/M07 A3039 RMK A01 T10471071  RH  083%=      5-min Rain = 0
KKN1 091335Z 29004KT M05/M07 A3039 RMK A01 T10471070  RH  084%=      5-min Rain = 0
KKN1 091340Z 29003KT M05/M07 A3039 RMK A01 T10471071  RH  083%=      5-min Rain = 0
KKN1 091345Z 28004KT M05/M07 A3039 RMK A01 T10481071  RH  084%=      5-min Rain = 0
KKN1 091350Z 28004KT M05/M07 A3039 RMK A01 T10471071  RH  083%=      5-min Rain = 0
KKN1 091355Z 29004KT M05/M07 A3039 RMK A01 T10461071  RH  083%=      5-min Rain = 0
KKN1 091400Z 28005KT M05/M07 A3039 RMK A01 T10451071  RH  082%=      5-min Rain = 0
KKN1 091405Z 28004KT M05/M07 A3039 RMK A01 T10451074  RH  081%=      5-min Rain = 0
KKN1 091410Z 29004KT M05/M07 A304 RMK A01 T10471073  RH  082%=      5-min Rain = 0
KKN1 091415Z 29005KT M05/M07 A304 RMK A01 T10471071  RH  083%=      5-min Rain = 0
KKN1 091420Z 27004KT M05/M07 A304 RMK A01 T10461071  RH  083%=      5-min Rain = 0
KKN1 091425Z 27004KT M04/M07 A304 RMK A01 T10431070  RH  081%=      5-min Rain = 0
KKN1 091430Z 28004KT M04/M07 A304 RMK A01 T10421070  RH  081%=      5-min Rain = 0
KKN1 091435Z 27002KT M04/M07 A304 RMK A01 T10411069  RH  081%=      5-min Rain = 0
KKN1 091440Z 24003KT M04/M07 A304 RMK A01 T10421068  RH  082%=      5-min Rain = 0
KKN1 091445Z 23003KT M04/M06 A3041 RMK A01 T10401064  RH  083%=      5-min Rain = 0
KKN1 091450Z 25002KT M04/M06 A3041 RMK A01 T10381064  RH  082%=      5-min Rain = 0
KKN1 091455Z 25002KT M04/M06 A3041 RMK A01 T10361064  RH  081%=      5-min Rain = 0
KKN1 091500Z 24003KT M04/M06 A3041 RMK A01 T10351062  RH  081%=      5-min Rain = 0
KKN1 091505Z 24003KT M03/M06 A3041 RMK A01 T10341060  RH  082%=      5-min Rain = 0
KKN1 091510Z 25002KT M03/M06 A3042 RMK A01 T10321059  RH  082%=      5-min Rain = 0
KKN1 091515Z 24003KT M03/M06 A3042 RMK A01 T10301057  RH  082%=      5-min Rain = 0
KKN1 091520Z 24003KT M03/M06 A3042 RMK A01 T10271055  RH  081%=      5-min Rain = 0
KKN1 091525Z 26003KT M03/M06 A3042 RMK A01 T10271055  RH  081%=      5-min Rain = 0
KKN1 091530Z 27002KT M03/M05 A3043 RMK A01 T10261054  RH  081%=      5-min Rain = 0
KKN1 091535Z 27002KT M02/M05 A3043 RMK A01 T10231052  RH  081%=      5-min Rain = 0
KKN1 091540Z 26003KT M02/M05 A3043 RMK A01 T10221051  RH  081%=      5-min Rain = 0
KKN1 091545Z 26003KT M02/M05 A3043 RMK A01 T10181048  RH  080%=      5-min Rain = 0
KKN1 091550Z 27003KT M01/M05 A3043 RMK A01 T10141045  RH  080%=      5-min Rain = 0
KKN1 091555Z 27003KT M01/M04 A3043 RMK A01 T10101042  RH  079%=      5-min Rain = 0
KKN1 091600Z 28004KT M01/M04 A3043 RMK A01 T10071041  RH  078%=      5-min Rain = 0
KKN1 091605Z 28004KT M01/M04 A3043 RMK A01 T10051039  RH  078%=      5-min Rain = 0
KKN1 091610Z 29003KT M00/M04 A3043 RMK A01 T10021039  RH  077%=      5-min Rain = 0
KKN1 091615Z 30003KT 00/M04 A3044 RMK A01 T00021036  RH  076%=      5-min Rain = 0
KKN1 091620Z 32004KT 01/M03 A3044 RMK A01 T00071031  RH  076%=      5-min Rain = 0
KKN1 091625Z 32005KT 01/M03 A3044 RMK A01 T00121032  RH  073%=      5-min Rain = 0
KKN1 091630Z 33006KT 01/M03 A3044 RMK A01 T00141033  RH  071%=      5-min Rain = 0
KKN1 091635Z 33006KT 02/M03 A3044 RMK A01 T00171028  RH  072%=      5-min Rain = 0
KKN1 091640Z 33007KT 02/M04 A3044 RMK A01 T00151035  RH  070%=      5-min Rain = 0
KKN1 091645Z 33007KT 02/M03 A3044 RMK A01 T00151032  RH  071%=      5-min Rain = 0
KKN1 091650Z 33007KT 02/M03 A3044 RMK A01 T00161033  RH  071%=      5-min Rain = 0
KKN1 091655Z 33007KT 02/M03 A3044 RMK A01 T00171030  RH  071%=      5-min Rain = 0
KKN1 091700Z 33006KT 02/M03 A3044 RMK A01 T00181030  RH  071%=      5-min Rain = 0
KKN1 091705Z 33007KT 02/M03 A3043 RMK A01 T00201029  RH  071%=      5-min Rain = 0
KKN1 091710Z 33007KT 02/M03 A3043 RMK A01 T00201029  RH  070%=      5-min Rain = 0
KKN1 091715Z 33006KT 02/M03 A3043 RMK A01 T00221028  RH  070%=      5-min Rain = 0
KKN1 091720Z 33004KT 03/M03 A3044 RMK A01 T00251025  RH  070%=      5-min Rain = 0
KKN1 091725Z 33004KT 03/M02 A3043 RMK A01 T00281022  RH  070%=      5-min Rain = 0
KKN1 091730Z 33005KT 03/M02 A3043 RMK A01 T00291022  RH  070%=      5-min Rain = 0
KKN1 091735Z 32004KT 03/M02 A3043 RMK A01 T00311022  RH  068%=      5-min Rain = 0
KKN1 091740Z 31004KT 03/M02 A3043 RMK A01 T00321022  RH  068%=      5-min Rain = 0
KKN1 091745Z 33004KT 03/M03 A3043 RMK A01 T00331026  RH  066%=      5-min Rain = 0.01
KKN1 091750Z 31004KT 03/M03 A3043 RMK A01 T00331025  RH  067%=      5-min Rain = 0.01
KKN1 091755Z 34006KT 03/M02 A3043 RMK A01 T00331024  RH  066%=      5-min Rain = 0
KKN1 091800Z 34006KT 03/M03 A3042 RMK A01 T00341026  RH  065%=      5-min Rain = 0.01
KKN1 091805Z 32004KT 04/M02 A3042 RMK A01 T00361018  RH  069%=      5-min Rain = 0.01
KKN1 091810Z 33005KT 04/M02 A3041 RMK A01 T00371020  RH  067%=      5-min Rain = 0
KKN1 091815Z 33005KT 04/M02 A3041 RMK A01 T00401019  RH  066%=      5-min Rain = 0.01
KKN1 091820Z 30004KT 04/M02 A3041 RMK A01 T00381017  RH  068%=      5-min Rain = 0
KKN1 091825Z 30004KT 04/M02 A3041 RMK A01 T00391015  RH  069%=      5-min Rain = 0.01
KKN1 091830Z 30004KT 04/M02 A304 RMK A01 T00401019  RH  066%=      5-min Rain = 0
KKN1 091835Z 30004KT 04/M02 A304 RMK A01 T00411018  RH  066%=      5-min Rain = 0.01
KKN1 091840Z 31005KT 04/M02 A304 RMK A01 T00421018  RH  065%=      5-min Rain = 0.01
KKN1 091845Z 29004KT 04/M02 A3039 RMK A01 T00421022  RH  064%=      5-min Rain = 0
KKN1 091850Z 30005KT 04/M02 A3039 RMK A01 T00421016  RH  066%=      5-min Rain = 0.01
KKN1 091855Z 31005KT 05/M02 A3039 RMK A01 T00451019  RH  063%=      5-min Rain = 0
KKN1 091900Z 31005KT 05/M02 A3039 RMK A01 T00471016  RH  064%=      5-min Rain = 0.01
KKN1 091905Z 31005KT 05/M02 A3039 RMK A01 T00491020  RH  062%=      5-min Rain = 0
KKN1 091910Z 31005KT 05/M02 A3039 RMK A01 T00491020  RH  061%=      5-min Rain = 0.01
KKN1 091915Z 32006KT 05/M02 A3039 RMK A01 T00511017  RH  062%=      5-min Rain = 0
KKN1 091920Z 33006KT 05/M03 A3039 RMK A01 T00501030  RH  057%=      5-min Rain = 0.01
KKN1 091925Z 33006KT 05/M02 A3039 RMK A01 T00531022  RH  059%=      5-min Rain = 0
KKN1 091930Z 33005KT 05/M02 A3039 RMK A01 T00541021  RH  059%=      5-min Rain = 0
KKN1 091935Z 31007KT 05/M02 A3038 RMK A01 T00541018  RH  061%=      5-min Rain = 0
KKN1 091940Z 32007KT 05/M02 A3038 RMK A01 T00531018  RH  061%=      5-min Rain = 0
KKN1 091945Z 33007KT 05/M02 A3038 RMK A01 T00541019  RH  060%=      5-min Rain = 0
KKN1 091950Z 33006KT 06/M02 A3037 RMK A01 T00561017  RH  060%=      5-min Rain = 0
KKN1 091955Z 31005KT 06/M02 A3037 RMK A01 T00551022  RH  058%=      5-min Rain = 0
KKN1 092000Z 32007KT 06/M02 A3037 RMK A01 T00561019  RH  059%=      5-min Rain = 0
KKN1 092005Z 33005KT 06/M03 A3037 RMK A01 T00551028  RH  055%=      5-min Rain = 0
KKN1 092010Z 31006KT 06/M02 A3037 RMK A01 T00571023  RH  057%=      5-min Rain = 0
KKN1 092015Z 32005KT 06/M02 A3037 RMK A01 T00581022  RH  057%=      5-min Rain = 0
KKN1 092020Z 31006KT 06/M02 A3037 RMK A01 T00591024  RH  056%=      5-min Rain = 0
KKN1 092025Z 32005KT 06/M03 A3037 RMK A01 T00601027  RH  054%=      5-min Rain = 0
KKN1 092030Z 32006KT 06/M03 A3037 RMK A01 T00601025  RH  055%=      5-min Rain = 0
KKN1 092035Z 32005KT 06/M02 A3037 RMK A01 T00601022  RH  056%=      5-min Rain = 0
KKN1 092040Z 31006KT 06/M02 A3037 RMK A01 T00631020  RH  056%=      5-min Rain = 0
KKN1 092045Z 29006KT 06/M03 A3037 RMK A01 T00631025  RH  053%=      5-min Rain = 0
KKN1 092050Z 30006KT 06/M02 A3037 RMK A01 T00631024  RH  054%=      5-min Rain = 0
KKN1 092055Z 31006KT 06/M02 A3037 RMK A01 T00641022  RH  055%=      5-min Rain = 0
KKN1 092100Z 31007KT 06/M02 A3037 RMK A01 T00641019  RH  056%=      5-min Rain = 0
KKN1 092105Z 31006KT 06/M02 A3037 RMK A01 T00631020  RH  056%=      5-min Rain = 0
KKN1 092110Z 30007KT 06/M02 A3037 RMK A01 T00641016  RH  057%=      5-min Rain = 0
KKN1 092115Z 31007KT 07/M01 A3036 RMK A01 T00651014  RH  058%=      5-min Rain = 0
KKN1 092120Z 31007KT 07/M03 A3037 RMK A01 T00651027  RH  052%=      5-min Rain = 0
KKN1 092125Z 30007KT 07/M01 A3037 RMK A01 T00671011  RH  058%=      5-min Rain = 0
KKN1 092130Z 28008KT 07/M01 A3037 RMK A01 T00651014  RH  058%=      5-min Rain = 0
KKN1 092135Z 29009KT 06/M02 A3037 RMK A01 T00641015  RH  057%=      5-min Rain = 0
KKN1 092140Z 28009KT 06/M02 A3037 RMK A01 T00641017  RH  057%=      5-min Rain = 0
KKN1 092145Z 29008KT 07/M02 A3037 RMK A01 T00651016  RH  057%=      5-min Rain = 0
KKN1 092150Z 30008KT 07/M02 A3037 RMK A01 T00651018  RH  056%=      5-min Rain = 0
KKN1 092155Z 29008KT 07/M02 A3037 RMK A01 T00651015  RH  057%=      5-min Rain = 0
KKN1 092200Z 30009KT 07/M02 A3037 RMK A01 T00651023  RH  054%=      5-min Rain = 0
KKN1 092205Z 29007KT 07/M02 A3037 RMK A01 T00651022  RH  054%=      5-min Rain = 0
KKN1 092210Z 29008KT 07/M02 A3037 RMK A01 T00651016  RH  057%=      5-min Rain = 0
KKN1 092215Z 28007KT 06/M01 A3037 RMK A01 T00641011  RH  059%=      5-min Rain = 0
KKN1 092220Z 28006KT 06/M01 A3036 RMK A01 T00631014  RH  058%=      5-min Rain = 0
KKN1 092225Z 29006KT 06/M01 A3036 RMK A01 T00641011  RH  059%=      5-min Rain = 0
KKN1 092230Z 29005KT 07/M01 A3037 RMK A01 T00651009  RH  060%=      5-min Rain = 0
KKN1 092235Z 29006KT 07/M01 A3037 RMK A01 T00651010  RH  060%=      5-min Rain = 0
KKN1 092240Z 29005KT 06/M01 A3036 RMK A01 T00641011  RH  059%=      5-min Rain = 0
KKN1 092245Z 28006KT 06/M01 A3037 RMK A01 T00621006  RH  062%=      5-min Rain = 0
KKN1 092250Z 28005KT 06/M00 A3037 RMK A01 T00591003  RH  065%=      5-min Rain = 0
KKN1 092255Z 28006KT 06/00 A3037 RMK A01 T005800-0  RH  067%=      5-min Rain = 0
KKN1 092300Z 28006KT 06/M00 A3037 RMK A01 T00561002  RH  067%=      5-min Rain = 0
KKN1 092305Z 28005KT 06/M00 A3037 RMK A01 T00551004  RH  067%=      5-min Rain = 0
KKN1 092310Z 27005KT 06/M01 A3037 RMK A01 T00551007  RH  065%=      5-min Rain = 0
KKN1 092315Z 27005KT 05/M01 A3037 RMK A01 T00541005  RH  066%=      5-min Rain = 0
KKN1 092320Z 26005KT 05/M01 A3037 RMK A01 T00521007  RH  067%=      5-min Rain = 0
KKN1 092325Z 26004KT 05/M01 A3036 RMK A01 T00511007  RH  067%=      5-min Rain = 0
KKN1 092330Z 26004KT 05/M01 A3036 RMK A01 T00491009  RH  067%=      5-min Rain = 0
KKN1 092335Z 25005KT 05/M01 A3036 RMK A01 T00451008  RH  069%=      5-min Rain = 0
KKN1 092340Z 24006KT 04/M01 A3036 RMK A01 T00421011  RH  069%=      5-min Rain = 0
KKN1 092345Z 24006KT 04/M01 A3036 RMK A01 T00401013  RH  069%=      5-min Rain = 0
KKN1 092350Z 24006KT 04/M01 A3036 RMK A01 T00371014  RH  070%=      5-min Rain = 0
KKN1 092355Z 24005KT 04/M01 A3036 RMK A01 T00351014  RH  071%=      5-min Rain = 0
KKN1 100000Z 24005KT 03/M01 A3037 RMK A01 T00331014  RH  072%=      5-min Rain = 0
KKN1 100005Z 25005KT 03/M02 A3037 RMK A01 T00331016  RH  071%=      5-min Rain = 0
KKN1 100010Z 24005KT 03/M02 A3037 RMK A01 T00311016  RH  072%=      5-min Rain = 0
KKN1 100015Z 24006KT 03/M02 A3037 RMK A01 T00291017  RH  072%=      5-min Rain = 0
KKN1 100020Z 24006KT 03/M02 A3037 RMK A01 T00281018  RH  073%=      5-min Rain = 0
KKN1 100025Z 24006KT 03/M02 A3037 RMK A01 T00261018  RH  073%=      5-min Rain = 0
KKN1 100030Z 24006KT 02/M02 A3037 RMK A01 T00241018  RH  075%=      5-min Rain = 0
KKN1 100035Z 25005KT 02/M02 A3037 RMK A01 T00241021  RH  073%=      5-min Rain = 0
KKN1 100040Z 25005KT 03/M02 A3037 RMK A01 T00251021  RH  073%=      5-min Rain = 0
KKN1 100045Z 25005KT 02/M02 A3037 RMK A01 T00231021  RH  073%=      5-min Rain = 0
KKN1 100050Z 25005KT 02/M02 A3037 RMK A01 T00211021  RH  074%=      5-min Rain = 0
KKN1 100055Z 24005KT 02/M02 A3037 RMK A01 T00191022  RH  075%=      5-min Rain = 0
KKN1 100100Z 24005KT 02/M02 A3037 RMK A01 T00161020  RH  078%=      5-min Rain = 0
KKN1 100105Z 24005KT 02/M02 A3037 RMK A01 T00161023  RH  076%=      5-min Rain = 0
KKN1 100110Z 24005KT 02/M03 A3038 RMK A01 T00161025  RH  075%=      5-min Rain = 0
KKN1 100115Z 25004KT 02/M03 A3038 RMK A01 T00171025  RH  074%=      5-min Rain = 0
KKN1 100120Z 25005KT 02/M03 A3038 RMK A01 T00171025  RH  074%=      5-min Rain = 0
KKN1 100125Z 25004KT 02/M03 A3038 RMK A01 T00161025  RH  075%=      5-min Rain = 0
KKN1 100130Z 26004KT 02/M03 A3038 RMK A01 T00151025  RH  075%=      5-min Rain = 0
KKN1 100135Z 26003KT 01/M03 A3038 RMK A01 T00121025  RH  077%=      5-min Rain = 0
KKN1 100140Z 26003KT 01/M02 A3038 RMK A01 T00111024  RH  078%=      5-min Rain = 0
KKN1 100145Z 26003KT 01/M02 A3039 RMK A01 T00101024  RH  079%=      5-min Rain = 0
KKN1 100150Z 27004KT 01/M02 A3039 RMK A01 T00081022  RH  081%=      5-min Rain = 0
KKN1 100155Z 26005KT 01/M02 A3039 RMK A01 T00081024  RH  080%=      5-min Rain = 0
KKN1 100200Z 26005KT 01/M03 A3039 RMK A01 T00091025  RH  079%=      5-min Rain = 0
KKN1 100205Z 25005KT 01/M03 A3039 RMK A01 T00081025  RH  079%=      5-min Rain = 0
KKN1 100210Z 25005KT 00/M02 A3039 RMK A01 T00031024  RH  083%=      5-min Rain = 0
KKN1 100215Z 25005KT 00/02 A3039 RMK A01 T00000-23  RH  085%=      5-min Rain = 0
KKN1 100220Z 24005KT M00/M02 A3039 RMK A01 T10011023  RH  086%=      5-min Rain = 0
KKN1 100225Z 24005KT M00/M02 A3039 RMK A01 T10021024  RH  086%=      5-min Rain = 0
KKN1 100230Z 24005KT M00/M02 A3039 RMK A01 T10021024  RH  086%=      5-min Rain = 0
KKN1 100235Z 23005KT M00/M02 A3039 RMK A01 T10021021  RH  088%=      5-min Rain = 0
KKN1 100240Z 23004KT M00/M02 A304 RMK A01 T10041021  RH  089%=      5-min Rain = 0
KKN1 100245Z 23005KT M00/M02 A3039 RMK A01 T10041020  RH  090%=      5-min Rain = 0
KKN1 100250Z 23004KT M00/M02 A3039 RMK A01 T10041021  RH  089%=      5-min Rain = 0
KKN1 100255Z 23004KT M00/M02 A304 RMK A01 T10041023  RH  088%=      5-min Rain = 0
KKN1 100300Z 23005KT M00/M02 A3039 RMK A01 T10041023  RH  088%=      5-min Rain = 0
KKN1 100305Z 22005KT M00/M02 A3039 RMK A01 T10031023  RH  087%=      5-min Rain = 0
KKN1 100310Z 22004KT M00/M02 A3039 RMK A01 T10041023  RH  087%=      5-min Rain = 0
KKN1 100315Z 23005KT M01/M02 A3039 RMK A01 T10051023  RH  088%=      5-min Rain = 0
KKN1 100320Z 23005KT M00/M03 A3039 RMK A01 T10041025  RH  086%=      5-min Rain = 0
KKN1 100325Z 23006KT M00/M03 A3039 RMK A01 T10041027  RH  085%=      5-min Rain = 0
KKN1 100330Z 23006KT M00/M03 A3039 RMK A01 T10041027  RH  085%=      5-min Rain = 0
KKN1 100335Z 23007KT M00/M03 A3038 RMK A01 T10031026  RH  085%=      5-min Rain = 0
KKN1 100340Z 23008KT M00/M03 A3038 RMK A01 T10011026  RH  084%=      5-min Rain = 0
KKN1 100345Z 23008KT 00/M03 A3038 RMK A01 T00011027  RH  082%=      5-min Rain = 0
KKN1 100350Z 23009KT 00/M03 A3038 RMK A01 T00021027  RH  082%=      5-min Rain = 0
KKN1 100355Z 23009KT 00/M03 A3038 RMK A01 T00021027  RH  081%=      5-min Rain = 0
KKN1 100400Z 23009KT 00/M03 A3038 RMK A01 T00031027  RH  081%=      5-min Rain = 0
KKN1 100405Z 24007KT 00/M03 A3039 RMK A01 T00041027  RH  080%=      5-min Rain = 0
KKN1 100410Z 24005KT 00/M03 A3039 RMK A01 T00031027  RH  081%=      5-min Rain = 0
KKN1 100415Z 26004KT 00/M03 A3039 RMK A01 T00021028  RH  081%=      5-min Rain = 0
KKN1 100420Z 25005KT 00/M03 A3039 RMK A01 T00011028  RH  081%=      5-min Rain = 0
KKN1 100425Z 25006KT M00/M03 A3039 RMK A01 T10011030  RH  081%=      5-min Rain = 0
KKN1 100430Z 25005KT M00/M03 A304 RMK A01 T10021031  RH  081%=      5-min Rain = 0
KKN1 100435Z 25005KT M00/M03 A304 RMK A01 T10041031  RH  082%=      5-min Rain = 0
KKN1 100440Z 25005KT M01/M03 A304 RMK A01 T10051031  RH  083%=      5-min Rain = 0
KKN1 100445Z 25005KT M01/M03 A304 RMK A01 T10071031  RH  084%=      5-min Rain = 0
KKN1 100450Z 24005KT M01/M03 A3039 RMK A01 T10081032  RH  084%=      5-min Rain = 0
KKN1 100455Z 23006KT M01/M03 A3039 RMK A01 T10081031  RH  085%=      5-min Rain = 0
KKN1 100500Z 23006KT M01/M03 A3039 RMK A01 T10101031  RH  086%=      5-min Rain = 0
KKN1 100505Z 23006KT M01/M03 A3039 RMK A01 T10091030  RH  086%=      5-min Rain = 0
KKN1 100510Z 22006KT M01/M03 A3038 RMK A01 T10081028  RH  087%=      5-min Rain = 0
KKN1 100515Z 22006KT M01/M03 A3038 RMK A01 T10081027  RH  087%=      5-min Rain = 0
KKN1 100520Z 22006KT M01/M03 A3038 RMK A01 T10081027  RH  087%=      5-min Rain = 0
KKN1 100525Z 23006KT M01/M03 A3038 RMK A01 T10071028  RH  087%=      5-min Rain = 0
KKN1 100530Z 24005KT M01/M03 A3038 RMK A01 T10071028  RH  086%=      5-min Rain = 0
KKN1 100535Z 25005KT M01/M03 A3039 RMK A01 T10061028  RH  086%=      5-min Rain = 0
KKN1 100540Z 25005KT M01/M03 A3038 RMK A01 T10071029  RH  086%=      5-min Rain = 0
KKN1 100545Z 25005KT M01/M03 A3039 RMK A01 T10071029  RH  086%=      5-min Rain = 0
KKN1 100550Z 24006KT M01/M03 A3039 RMK A01 T10071029  RH  086%=      5-min Rain = 0
KKN1 100555Z 24006KT M01/M03 A3039 RMK A01 T10081030  RH  086%=      5-min Rain = 0

Page generated in 0.0089 seconds.